sensor_id;sensor_type;location;lat;lon;timestamp;pressure;altitude;pressure_sealevel;temperature;humidity
57234;BME280;43090;52.604;13.318;2023-04-02T00:01:35;100699.16;;;2.58;95.72
57234;BME280;43090;52.604;13.318;2023-04-02T00:04:10;100692.19;;;2.79;96.26
57234;BME280;43090;52.604;13.318;2023-04-02T00:06:39;100703.66;;;2.79;97.46
57234;BME280;43090;52.604;13.318;2023-04-02T00:11:40;100704.00;;;2.70;97.42
57234;BME280;43090;52.604;13.318;2023-04-02T00:16:43;100718.81;;;2.74;97.09
57234;BME280;43090;52.604;13.318;2023-04-02T00:19:15;100719.22;;;2.87;96.01
57234;BME280;43090;52.604;13.318;2023-04-02T00:21:43;100708.38;;;2.93;96.60
57234;BME280;43090;52.604;13.318;2023-04-02T00:24:16;100725.50;;;2.85;95.80
57234;BME280;43090;52.604;13.318;2023-04-02T00:26:43;100725.78;;;2.53;96.12
57234;BME280;43090;52.604;13.318;2023-04-02T00:29:11;100727.53;;;2.54;96.02
57234;BME280;43090;52.604;13.318;2023-04-02T00:31:42;100732.56;;;2.60;96.65
57234;BME280;43090;52.604;13.318;2023-04-02T00:34:14;100725.16;;;2.92;97.12
57234;BME280;43090;52.604;13.318;2023-04-02T00:36:42;100734.50;;;2.55;96.30
57234;BME280;43090;52.604;13.318;2023-04-02T00:39:12;100735.34;;;2.57;96.57
57234;BME280;43090;52.604;13.318;2023-04-02T00:41:41;100743.13;;;2.60;96.88
57234;BME280;43090;52.604;13.318;2023-04-02T00:44:13;100748.03;;;2.47;96.11
57234;BME280;43090;52.604;13.318;2023-04-02T00:46:43;100749.59;;;2.53;96.05
57234;BME280;43090;52.604;13.318;2023-04-02T00:49:22;100756.34;;;2.60;95.33
57234;BME280;43090;52.604;13.318;2023-04-02T00:51:55;100758.38;;;2.54;95.65
57234;BME280;43090;52.604;13.318;2023-04-02T00:54:22;100757.38;;;2.56;95.61
57234;BME280;43090;52.604;13.318;2023-04-02T00:56:51;100761.41;;;2.66;95.53
57234;BME280;43090;52.604;13.318;2023-04-02T01:01:49;100767.13;;;2.56;94.39
57234;BME280;43090;52.604;13.318;2023-04-02T01:04:25;100762.09;;;2.72;95.04
57234;BME280;43090;52.604;13.318;2023-04-02T01:06:52;100769.56;;;2.60;95.82
57234;BME280;43090;52.604;13.318;2023-04-02T01:15:04;100777.50;;;2.60;95.31
57234;BME280;43090;52.604;13.318;2023-04-02T01:22:36;100796.34;;;2.51;92.72
57234;BME280;43090;52.604;13.318;2023-04-02T01:25:08;100796.25;;;2.54;91.69
57234;BME280;43090;52.604;13.318;2023-04-02T01:27:40;100800.59;;;2.79;92.24
57234;BME280;43090;52.604;13.318;2023-04-02T01:30:09;100814.84;;;2.51;91.27
57234;BME280;43090;52.604;13.318;2023-04-02T01:32:37;100816.38;;;2.58;91.17
57234;BME280;43090;52.604;13.318;2023-04-02T01:35:04;100817.16;;;2.60;90.06
57234;BME280;43090;52.604;13.318;2023-04-02T01:37:37;100828.28;;;2.70;90.31
57234;BME280;43090;52.604;13.318;2023-04-02T01:40:09;100830.97;;;2.69;90.09
57234;BME280;43090;52.604;13.318;2023-04-02T01:45:19;100847.69;;;2.69;90.64
57234;BME280;43090;52.604;13.318;2023-04-02T01:47:47;100840.69;;;2.92;90.88
57234;BME280;43090;52.604;13.318;2023-04-02T01:50:30;100843.25;;;2.70;91.69
57234;BME280;43090;52.604;13.318;2023-04-02T01:52:59;100850.66;;;2.60;90.52
57234;BME280;43090;52.604;13.318;2023-04-02T01:55:38;100849.63;;;2.64;91.02
57234;BME280;43090;52.604;13.318;2023-04-02T01:58:05;100856.91;;;2.57;91.31
57234;BME280;43090;52.604;13.318;2023-04-02T02:00:33;100867.66;;;2.53;91.03
57234;BME280;43090;52.604;13.318;2023-04-02T02:03:01;100868.63;;;2.50;90.88
57234;BME280;43090;52.604;13.318;2023-04-02T02:05:28;100873.38;;;2.65;90.83
57234;BME280;43090;52.604;13.318;2023-04-02T02:07:55;100868.53;;;2.53;90.12
57234;BME280;43090;52.604;13.318;2023-04-02T02:10:25;100876.00;;;2.65;90.69
57234;BME280;43090;52.604;13.318;2023-04-02T02:12:51;100893.44;;;2.46;90.92
57234;BME280;43090;52.604;13.318;2023-04-02T02:15:19;100889.41;;;2.61;91.02
57234;BME280;43090;52.604;13.318;2023-04-02T02:17:46;100894.50;;;2.65;90.27
57234;BME280;43090;52.604;13.318;2023-04-02T02:20:12;100899.38;;;2.78;89.83
57234;BME280;43090;52.604;13.318;2023-04-02T02:22:43;100904.44;;;2.59;90.22
57234;BME280;43090;52.604;13.318;2023-04-02T02:25:13;100914.63;;;2.70;90.20
57234;BME280;43090;52.604;13.318;2023-04-02T02:30:12;100921.38;;;2.53;90.37
57234;BME280;43090;52.604;13.318;2023-04-02T02:32:48;100918.56;;;2.83;90.97
57234;BME280;43090;52.604;13.318;2023-04-02T02:35:19;100924.72;;;2.83;90.53
57234;BME280;43090;52.604;13.318;2023-04-02T02:37:49;100927.09;;;2.91;90.25
57234;BME280;43090;52.604;13.318;2023-04-02T02:40:23;100934.00;;;2.95;90.03
57234;BME280;43090;52.604;13.318;2023-04-02T02:42:56;100934.72;;;2.99;91.04
57234;BME280;43090;52.604;13.318;2023-04-02T02:45:25;100935.75;;;2.96;89.77
57234;BME280;43090;52.604;13.318;2023-04-02T02:47:53;100942.84;;;2.94;90.93
57234;BME280;43090;52.604;13.318;2023-04-02T02:50:27;100946.00;;;3.04;89.84
57234;BME280;43090;52.604;13.318;2023-04-02T02:52:57;100945.00;;;3.08;90.87
57234;BME280;43090;52.604;13.318;2023-04-02T02:55:28;100948.88;;;3.23;90.87
57234;BME280;43090;52.604;13.318;2023-04-02T02:58:00;100958.34;;;3.05;90.47
57234;BME280;43090;52.604;13.318;2023-04-02T03:00:30;100960.13;;;3.05;88.83
57234;BME280;43090;52.604;13.318;2023-04-02T03:02:57;100971.78;;;3.24;89.35
57234;BME280;43090;52.604;13.318;2023-04-02T03:05:24;100961.22;;;3.23;90.60
57234;BME280;43090;52.604;13.318;2023-04-02T03:07:52;100970.88;;;3.24;91.04
57234;BME280;43090;52.604;13.318;2023-04-02T03:15:37;100981.19;;;2.82;88.97
57234;BME280;43090;52.604;13.318;2023-04-02T03:18:10;100989.38;;;2.75;88.33
57234;BME280;43090;52.604;13.318;2023-04-02T03:20:48;100982.69;;;2.90;89.23
57234;BME280;43090;52.604;13.318;2023-04-02T03:23:31;100997.81;;;3.11;89.36
57234;BME280;43090;52.604;13.318;2023-04-02T03:28:31;101006.06;;;3.02;87.95
57234;BME280;43090;52.604;13.318;2023-04-02T03:38:22;101026.69;;;2.65;88.68
57234;BME280;43090;52.604;13.318;2023-04-02T03:41:00;101027.56;;;2.93;88.71
57234;BME280;43090;52.604;13.318;2023-04-02T03:43:49;101028.53;;;2.90;88.31
57234;BME280;43090;52.604;13.318;2023-04-02T03:48:48;101043.09;;;3.02;89.16
57234;BME280;43090;52.604;13.318;2023-04-02T03:51:18;101051.63;;;2.85;91.33
57234;BME280;43090;52.604;13.318;2023-04-02T03:53:46;101046.75;;;2.73;88.21
57234;BME280;43090;52.604;13.318;2023-04-02T03:56:20;101053.75;;;2.47;87.81
57234;BME280;43090;52.604;13.318;2023-04-02T03:58:51;101054.81;;;2.68;88.13
57234;BME280;43090;52.604;13.318;2023-04-02T04:01:25;101057.81;;;2.84;89.90
57234;BME280;43090;52.604;13.318;2023-04-02T04:04:00;101064.31;;;2.74;90.01
57234;BME280;43090;52.604;13.318;2023-04-02T04:06:29;101072.25;;;2.74;88.27
57234;BME280;43090;52.604;13.318;2023-04-02T04:08:58;101072.91;;;2.80;89.34
57234;BME280;43090;52.604;13.318;2023-04-02T04:11:27;101083.16;;;2.91;88.10
57234;BME280;43090;52.604;13.318;2023-04-02T04:14:00;101083.75;;;2.99;88.86
57234;BME280;43090;52.604;13.318;2023-04-02T04:16:28;101084.22;;;3.12;89.69
57234;BME280;43090;52.604;13.318;2023-04-02T04:19:05;101086.91;;;2.84;89.38
57234;BME280;43090;52.604;13.318;2023-04-02T04:21:36;101091.47;;;2.79;88.42
57234;BME280;43090;52.604;13.318;2023-04-02T04:24:03;101097.00;;;2.71;88.76
57234;BME280;43090;52.604;13.318;2023-04-02T04:26:35;101101.69;;;2.90;89.29
57234;BME280;43090;52.604;13.318;2023-04-02T04:31:50;101114.19;;;2.58;88.25
57234;BME280;43090;52.604;13.318;2023-04-02T04:34:22;101118.34;;;2.93;87.28
57234;BME280;43090;52.604;13.318;2023-04-02T04:36:54;101118.75;;;3.08;87.07
57234;BME280;43090;52.604;13.318;2023-04-02T04:39:28;101117.94;;;2.79;88.68
57234;BME280;43090;52.604;13.318;2023-04-02T04:41:57;101133.91;;;3.03;89.38
57234;BME280;43090;52.604;13.318;2023-04-02T04:44:45;101135.94;;;2.67;87.24
57234;BME280;43090;52.604;13.318;2023-04-02T04:47:18;101148.91;;;2.75;87.59
57234;BME280;43090;52.604;13.318;2023-04-02T04:52:37;101154.59;;;2.90;90.08
57234;BME280;43090;52.604;13.318;2023-04-02T04:55:22;101164.47;;;2.85;88.06
57234;BME280;43090;52.604;13.318;2023-04-02T04:57:50;101162.22;;;2.99;89.55
57234;BME280;43090;52.604;13.318;2023-04-02T05:00:32;101168.88;;;2.84;88.70
57234;BME280;43090;52.604;13.318;2023-04-02T05:05:46;101169.66;;;3.14;90.00
57234;BME280;43090;52.604;13.318;2023-04-02T05:08:21;101180.13;;;2.91;88.59
57234;BME280;43090;52.604;13.318;2023-04-02T05:11:03;101182.63;;;2.69;87.27
57234;BME280;43090;52.604;13.318;2023-04-02T05:13:36;101188.75;;;2.97;88.43
57234;BME280;43090;52.604;13.318;2023-04-02T05:16:12;101202.69;;;3.03;86.84
57234;BME280;43090;52.604;13.318;2023-04-02T05:21:27;101206.69;;;2.88;87.34
57234;BME280;43090;52.604;13.318;2023-04-02T05:26:45;101215.72;;;3.09;86.51
57234;BME280;43090;52.604;13.318;2023-04-02T05:29:17;101222.28;;;2.97;84.91
57234;BME280;43090;52.604;13.318;2023-04-02T05:34:31;101223.03;;;2.72;84.11
57234;BME280;43090;52.604;13.318;2023-04-02T05:36:58;101228.81;;;2.85;84.33
57234;BME280;43090;52.604;13.318;2023-04-02T05:39:25;101230.34;;;2.92;84.51
57234;BME280;43090;52.604;13.318;2023-04-02T05:41:57;101231.31;;;3.18;84.58
57234;BME280;43090;52.604;13.318;2023-04-02T05:44:29;101243.97;;;3.08;85.63
57234;BME280;43090;52.604;13.318;2023-04-02T05:46:57;101251.88;;;3.37;87.28
57234;BME280;43090;52.604;13.318;2023-04-02T05:49:49;101253.34;;;2.90;82.03
57234;BME280;43090;52.604;13.318;2023-04-02T05:52:21;101248.63;;;2.72;80.57
57234;BME280;43090;52.604;13.318;2023-04-02T05:54:56;101260.53;;;3.15;82.12
57234;BME280;43090;52.604;13.318;2023-04-02T05:57:30;101265.09;;;3.10;83.39
57234;BME280;43090;52.604;13.318;2023-04-02T06:00:14;101273.94;;;3.09;81.53
57234;BME280;43090;52.604;13.318;2023-04-02T06:02:43;101265.59;;;3.21;82.59
57234;BME280;43090;52.604;13.318;2023-04-02T06:05:20;101280.25;;;3.05;82.84
57234;BME280;43090;52.604;13.318;2023-04-02T06:08:00;101281.19;;;3.30;82.04
57234;BME280;43090;52.604;13.318;2023-04-02T06:10:29;101289.84;;;3.36;80.95
57234;BME280;43090;52.604;13.318;2023-04-02T06:12:59;101284.91;;;2.96;78.90
57234;BME280;43090;52.604;13.318;2023-04-02T06:15:30;101285.97;;;3.19;79.95
57234;BME280;43090;52.604;13.318;2023-04-02T06:18:04;101298.38;;;3.17;78.76
57234;BME280;43090;52.604;13.318;2023-04-02T06:20:42;101292.41;;;3.10;78.48
57234;BME280;43090;52.604;13.318;2023-04-02T06:23:14;101300.59;;;3.31;78.55
57234;BME280;43090;52.604;13.318;2023-04-02T06:26:08;101313.94;;;3.26;78.96
57234;BME280;43090;52.604;13.318;2023-04-02T06:28:45;101308.53;;;3.31;79.46
57234;BME280;43090;52.604;13.318;2023-04-02T06:33:58;101323.47;;;3.87;79.14
57234;BME280;43090;52.604;13.318;2023-04-02T06:36:25;101325.69;;;3.99;76.98
57234;BME280;43090;52.604;13.318;2023-04-02T06:38:53;101329.38;;;4.21;79.56
57234;BME280;43090;52.604;13.318;2023-04-02T06:41:22;101334.72;;;3.94;75.78
57234;BME280;43090;52.604;13.318;2023-04-02T06:46:33;101352.59;;;3.87;77.27
57234;BME280;43090;52.604;13.318;2023-04-02T06:49:09;101346.41;;;3.88;77.54
57234;BME280;43090;52.604;13.318;2023-04-02T06:51:38;101355.16;;;4.17;75.67
57234;BME280;43090;52.604;13.318;2023-04-02T06:54:07;101365.19;;;3.80;74.03
57234;BME280;43090;52.604;13.318;2023-04-02T06:56:42;101359.59;;;3.90;73.98
57234;BME280;43090;52.604;13.318;2023-04-02T06:59:10;101361.75;;;3.78;74.10
57234;BME280;43090;52.604;13.318;2023-04-02T07:01:43;101365.53;;;3.96;76.20
57234;BME280;43090;52.604;13.318;2023-04-02T07:04:11;101365.19;;;4.32;75.22
57234;BME280;43090;52.604;13.318;2023-04-02T07:06:37;101366.28;;;4.27;76.67
57234;BME280;43090;52.604;13.318;2023-04-02T07:09:04;101373.19;;;4.06;74.29
57234;BME280;43090;52.604;13.318;2023-04-02T07:11:32;101373.91;;;3.84;74.37
57234;BME280;43090;52.604;13.318;2023-04-02T07:13:58;101371.41;;;3.79;74.44
57234;BME280;43090;52.604;13.318;2023-04-02T07:16:25;101382.44;;;3.65;73.90
57234;BME280;43090;52.604;13.318;2023-04-02T07:18:53;101376.25;;;3.66;74.37
57234;BME280;43090;52.604;13.318;2023-04-02T07:21:24;101384.41;;;3.87;75.77
57234;BME280;43090;52.604;13.318;2023-04-02T07:23:52;101390.00;;;3.78;73.99
57234;BME280;43090;52.604;13.318;2023-04-02T07:26:20;101388.19;;;3.80;74.92
57234;BME280;43090;52.604;13.318;2023-04-02T07:28:47;101388.38;;;3.74;73.38
57234;BME280;43090;52.604;13.318;2023-04-02T07:31:18;101395.56;;;3.97;73.16
57234;BME280;43090;52.604;13.318;2023-04-02T07:33:45;101400.28;;;3.87;73.78
57234;BME280;43090;52.604;13.318;2023-04-02T07:36:21;101399.06;;;4.24;73.75
57234;BME280;43090;52.604;13.318;2023-04-02T07:38:48;101406.19;;;3.97;72.01
57234;BME280;43090;52.604;13.318;2023-04-02T07:41:15;101402.03;;;3.88;72.96
57234;BME280;43090;52.604;13.318;2023-04-02T07:43:42;101416.25;;;4.12;72.31
57234;BME280;43090;52.604;13.318;2023-04-02T07:46:09;101416.56;;;4.03;68.98
57234;BME280;43090;52.604;13.318;2023-04-02T07:48:36;101422.91;;;4.24;67.83
57234;BME280;43090;52.604;13.318;2023-04-02T07:51:02;101420.72;;;4.37;67.72
57234;BME280;43090;52.604;13.318;2023-04-02T07:53:29;101433.81;;;4.42;68.14
57234;BME280;43090;52.604;13.318;2023-04-02T07:56:00;101433.38;;;4.29;66.38
57234;BME280;43090;52.604;13.318;2023-04-02T07:58:28;101444.13;;;4.24;66.15
57234;BME280;43090;52.604;13.318;2023-04-02T08:00:55;101453.31;;;4.41;66.22
57234;BME280;43090;52.604;13.318;2023-04-02T08:03:22;101444.41;;;4.42;67.31
57234;BME280;43090;52.604;13.318;2023-04-02T08:05:50;101463.28;;;4.32;68.53
57234;BME280;43090;52.604;13.318;2023-04-02T08:08:16;101467.63;;;4.35;71.20
57234;BME280;43090;52.604;13.318;2023-04-02T08:10:43;101466.47;;;4.44;71.75
57234;BME280;43090;52.604;13.318;2023-04-02T08:13:09;101462.31;;;4.35;71.22
57234;BME280;43090;52.604;13.318;2023-04-02T08:15:36;101470.41;;;4.57;72.87
57234;BME280;43090;52.604;13.318;2023-04-02T08:18:02;101478.75;;;4.46;70.48
57234;BME280;43090;52.604;13.318;2023-04-02T08:20:29;101477.13;;;4.42;71.13
57234;BME280;43090;52.604;13.318;2023-04-02T08:22:56;101472.28;;;4.80;71.35
57234;BME280;43090;52.604;13.318;2023-04-02T08:25:23;101485.50;;;4.82;71.14
57234;BME280;43090;52.604;13.318;2023-04-02T08:27:49;101497.41;;;4.70;68.05
57234;BME280;43090;52.604;13.318;2023-04-02T08:30:16;101496.34;;;4.49;68.52
57234;BME280;43090;52.604;13.318;2023-04-02T08:32:43;101500.69;;;4.25;67.98
57234;BME280;43090;52.604;13.318;2023-04-02T08:35:10;101504.78;;;4.33;67.62
57234;BME280;43090;52.604;13.318;2023-04-02T08:37:37;101506.94;;;4.22;68.51
57234;BME280;43090;52.604;13.318;2023-04-02T08:40:04;101508.28;;;3.79;66.99
57234;BME280;43090;52.604;13.318;2023-04-02T08:42:45;101517.16;;;3.46;67.38
57234;BME280;43090;52.604;13.318;2023-04-02T08:47:50;101517.91;;;4.38;65.56
57234;BME280;43090;52.604;13.318;2023-04-02T08:52:50;101522.41;;;4.88;65.80
57234;BME280;43090;52.604;13.318;2023-04-02T08:57:56;101529.78;;;5.54;62.47
57234;BME280;43090;52.604;13.318;2023-04-02T09:02:59;101534.19;;;6.03;62.00
57234;BME280;43090;52.604;13.318;2023-04-02T09:05:31;101530.34;;;6.32;60.47
57234;BME280;43090;52.604;13.318;2023-04-02T09:08:00;101534.19;;;5.79;59.97
57234;BME280;43090;52.604;13.318;2023-04-02T09:10:34;101535.63;;;5.64;59.88
57234;BME280;43090;52.604;13.318;2023-04-02T09:13:02;101545.09;;;5.95;59.10
57234;BME280;43090;52.604;13.318;2023-04-02T09:15:34;101536.34;;;6.15;59.29
57234;BME280;43090;52.604;13.318;2023-04-02T09:18:10;101530.88;;;6.20;62.08
57234;BME280;43090;52.604;13.318;2023-04-02T09:20:41;101530.97;;;6.61;58.36
57234;BME280;43090;52.604;13.318;2023-04-02T09:23:18;101536.97;;;6.66;58.24
57234;BME280;43090;52.604;13.318;2023-04-02T09:25:47;101536.63;;;6.74;57.61
57234;BME280;43090;52.604;13.318;2023-04-02T09:28:32;101541.91;;;6.75;57.46
57234;BME280;43090;52.604;13.318;2023-04-02T09:33:42;101554.97;;;6.15;58.97
57234;BME280;43090;52.604;13.318;2023-04-02T09:36:31;101560.41;;;6.12;60.57
57234;BME280;43090;52.604;13.318;2023-04-02T09:39:01;101561.25;;;6.14;58.69
57234;BME280;43090;52.604;13.318;2023-04-02T09:41:34;101564.66;;;5.45;59.53
57234;BME280;43090;52.604;13.318;2023-04-02T09:44:15;101572.56;;;5.72;60.84
57234;BME280;43090;52.604;13.318;2023-04-02T09:46:47;101579.72;;;5.70;61.52
57234;BME280;43090;52.604;13.318;2023-04-02T09:49:17;101578.56;;;5.77;59.25
57234;BME280;43090;52.604;13.318;2023-04-02T09:54:45;101583.44;;;6.13;58.79
57234;BME280;43090;52.604;13.318;2023-04-02T09:57:17;101589.94;;;6.50;59.74
57234;BME280;43090;52.604;13.318;2023-04-02T09:59:46;101615.91;;;6.21;60.22
57234;BME280;43090;52.604;13.318;2023-04-02T10:02:23;101611.28;;;6.03;59.34
57234;BME280;43090;52.604;13.318;2023-04-02T10:04:50;101613.44;;;5.67;56.98
57234;BME280;43090;52.604;13.318;2023-04-02T10:07:30;101621.06;;;6.02;58.53
57234;BME280;43090;52.604;13.318;2023-04-02T10:10:00;101620.66;;;5.64;58.76
57234;BME280;43090;52.604;13.318;2023-04-02T10:12:28;101621.13;;;5.75;57.91
57234;BME280;43090;52.604;13.318;2023-04-02T10:14:58;101630.16;;;5.95;58.11
57234;BME280;43090;52.604;13.318;2023-04-02T10:17:27;101632.03;;;6.16;56.91
57234;BME280;43090;52.604;13.318;2023-04-02T10:20:00;101624.94;;;6.61;58.83
57234;BME280;43090;52.604;13.318;2023-04-02T10:22:31;101617.72;;;6.87;56.63
57234;BME280;43090;52.604;13.318;2023-04-02T10:24:58;101618.50;;;6.89;56.47
57234;BME280;43090;52.604;13.318;2023-04-02T10:32:32;101642.69;;;6.39;55.12
57234;BME280;43090;52.604;13.318;2023-04-02T10:35:03;101633.81;;;6.84;56.26
57234;BME280;43090;52.604;13.318;2023-04-02T10:37:51;101636.00;;;7.17;55.04
57234;BME280;43090;52.604;13.318;2023-04-02T10:40:34;101633.47;;;7.34;54.74
57234;BME280;43090;52.604;13.318;2023-04-02T10:45:45;101645.56;;;7.00;54.18
57234;BME280;43090;52.604;13.318;2023-04-02T10:48:22;101658.78;;;7.02;55.99
57234;BME280;43090;52.604;13.318;2023-04-02T10:50:59;101652.19;;;6.90;57.76
57234;BME280;43090;52.604;13.318;2023-04-02T10:56:02;101650.81;;;6.80;56.67
57234;BME280;43090;52.604;13.318;2023-04-02T10:58:32;101670.41;;;6.79;56.80
57234;BME280;43090;52.604;13.318;2023-04-02T11:01:07;101668.53;;;6.81;56.06
57234;BME280;43090;52.604;13.318;2023-04-02T11:03:38;101679.91;;;6.62;55.33
57234;BME280;43090;52.604;13.318;2023-04-02T11:06:21;101681.94;;;6.56;54.88
57234;BME280;43090;52.604;13.318;2023-04-02T11:08:49;101677.19;;;7.08;55.87
57234;BME280;43090;52.604;13.318;2023-04-02T11:11:19;101682.38;;;7.11;52.36
57234;BME280;43090;52.604;13.318;2023-04-02T11:13:56;101691.13;;;7.15;53.42
57234;BME280;43090;52.604;13.318;2023-04-02T11:16:27;101678.16;;;7.28;51.28
57234;BME280;43090;52.604;13.318;2023-04-02T11:19:08;101687.22;;;7.44;53.92
57234;BME280;43090;52.604;13.318;2023-04-02T11:21:36;101676.63;;;7.43;53.03
57234;BME280;43090;52.604;13.318;2023-04-02T11:42:39;101711.91;;;7.27;55.06
57234;BME280;43090;52.604;13.318;2023-04-02T11:50:47;101717.06;;;7.53;54.04
57234;BME280;43090;52.604;13.318;2023-04-02T11:55:40;101723.00;;;7.39;52.66
57234;BME280;43090;52.604;13.318;2023-04-02T12:03:23;101733.25;;;7.05;52.09
57234;BME280;43090;52.604;13.318;2023-04-02T12:06:06;101752.81;;;7.04;53.17
57234;BME280;43090;52.604;13.318;2023-04-02T12:11:32;101745.66;;;7.49;55.32
57234;BME280;43090;52.604;13.318;2023-04-02T12:14:01;101744.31;;;7.16;50.24
57234;BME280;43090;52.604;13.318;2023-04-02T12:16:31;101745.78;;;7.46;51.00
57234;BME280;43090;52.604;13.318;2023-04-02T12:18:58;101749.38;;;8.07;52.06
57234;BME280;43090;52.604;13.318;2023-04-02T12:21:27;101754.31;;;8.56;51.43
57234;BME280;43090;52.604;13.318;2023-04-02T12:23:54;101765.69;;;8.80;48.41
57234;BME280;43090;52.604;13.318;2023-04-02T12:26:24;101747.72;;;8.64;48.93
57234;BME280;43090;52.604;13.318;2023-04-02T12:28:51;101756.88;;;7.98;49.64
57234;BME280;43090;52.604;13.318;2023-04-02T12:31:18;101758.53;;;8.41;49.01
57234;BME280;43090;52.604;13.318;2023-04-02T12:33:48;101761.13;;;8.42;48.25
57234;BME280;43090;52.604;13.318;2023-04-02T12:36:18;101769.22;;;8.41;49.42
57234;BME280;43090;52.604;13.318;2023-04-02T12:38:49;101766.56;;;8.41;49.37
57234;BME280;43090;52.604;13.318;2023-04-02T12:43:56;101768.13;;;8.26;48.92
57234;BME280;43090;52.604;13.318;2023-04-02T12:46:25;101769.06;;;8.44;49.19
57234;BME280;43090;52.604;13.318;2023-04-02T12:48:52;101763.81;;;8.42;52.70
57234;BME280;43090;52.604;13.318;2023-04-02T12:51:19;101782.16;;;8.29;49.48
57234;BME280;43090;52.604;13.318;2023-04-02T12:53:51;101776.00;;;7.88;48.75
57234;BME280;43090;52.604;13.318;2023-04-02T12:56:19;101781.31;;;8.08;51.75
57234;BME280;43090;52.604;13.318;2023-04-02T13:01:20;101778.19;;;8.19;49.50
57234;BME280;43090;52.604;13.318;2023-04-02T13:04:08;101793.16;;;7.82;49.27
57234;BME280;43090;52.604;13.318;2023-04-02T13:06:37;101781.78;;;7.97;52.14
57234;BME280;43090;52.604;13.318;2023-04-02T13:09:05;101783.59;;;8.17;50.09
57234;BME280;43090;52.604;13.318;2023-04-02T13:11:36;101774.88;;;8.14;50.51
57234;BME280;43090;52.604;13.318;2023-04-02T13:14:03;101793.38;;;8.38;49.16
57234;BME280;43090;52.604;13.318;2023-04-02T13:16:37;101786.81;;;8.26;51.08
57234;BME280;43090;52.604;13.318;2023-04-02T13:19:19;101786.91;;;8.23;50.04
57234;BME280;43090;52.604;13.318;2023-04-02T13:21:46;101784.38;;;7.99;49.57
57234;BME280;43090;52.604;13.318;2023-04-02T13:24:16;101795.75;;;7.83;49.38
57234;BME280;43090;52.604;13.318;2023-04-02T13:26:43;101798.41;;;8.04;50.15
57234;BME280;43090;52.604;13.318;2023-04-02T13:31:52;101813.53;;;8.04;48.97
57234;BME280;43090;52.604;13.318;2023-04-02T13:34:20;101816.84;;;7.67;49.30
57234;BME280;43090;52.604;13.318;2023-04-02T13:36:47;101820.00;;;7.55;52.01
57234;BME280;43090;52.604;13.318;2023-04-02T13:39:13;101814.22;;;8.09;51.31
57234;BME280;43090;52.604;13.318;2023-04-02T13:44:10;101809.81;;;8.08;51.33
57234;BME280;43090;52.604;13.318;2023-04-02T13:46:39;101820.09;;;7.96;48.45
57234;BME280;43090;52.604;13.318;2023-04-02T13:49:07;101827.00;;;7.58;49.77
57234;BME280;43090;52.604;13.318;2023-04-02T13:51:35;101820.38;;;7.46;48.79
57234;BME280;43090;52.604;13.318;2023-04-02T13:54:02;101817.13;;;8.03;50.33
57234;BME280;43090;52.604;13.318;2023-04-02T13:56:31;101821.00;;;8.16;49.09
57234;BME280;43090;52.604;13.318;2023-04-02T13:58:58;101829.94;;;7.94;48.29
57234;BME280;43090;52.604;13.318;2023-04-02T14:01:24;101831.09;;;7.66;49.04
57234;BME280;43090;52.604;13.318;2023-04-02T14:03:51;101828.94;;;7.97;51.10
57234;BME280;43090;52.604;13.318;2023-04-02T14:11:45;101825.09;;;8.45;49.85
57234;BME280;43090;52.604;13.318;2023-04-02T14:16:50;101846.34;;;7.41;48.51
57234;BME280;43090;52.604;13.318;2023-04-02T14:19:25;101839.28;;;8.05;50.50
57234;BME280;43090;52.604;13.318;2023-04-02T14:29:42;101851.38;;;7.71;48.62
57234;BME280;43090;52.604;13.318;2023-04-02T14:32:30;101852.66;;;7.82;49.72
57234;BME280;43090;52.604;13.318;2023-04-02T14:35:13;101845.28;;;8.10;50.82
57234;BME280;43090;52.604;13.318;2023-04-02T14:37:54;101852.88;;;7.98;48.24
57234;BME280;43090;52.604;13.318;2023-04-02T14:43:21;101863.78;;;7.49;49.20
57234;BME280;43090;52.604;13.318;2023-04-02T14:45:56;101868.34;;;7.46;49.69
57234;BME280;43090;52.604;13.318;2023-04-02T14:51:00;101873.22;;;7.12;51.73
57234;BME280;43090;52.604;13.318;2023-04-02T14:56:13;101867.41;;;7.47;54.37
57234;BME280;43090;52.604;13.318;2023-04-02T14:58:45;101879.31;;;7.60;50.52
57234;BME280;43090;52.604;13.318;2023-04-02T15:01:26;101882.66;;;7.43;49.06
57234;BME280;43090;52.604;13.318;2023-04-02T15:03:58;101887.22;;;7.17;50.38
57234;BME280;43090;52.604;13.318;2023-04-02T15:06:32;101880.63;;;7.28;51.06
57234;BME280;43090;52.604;13.318;2023-04-02T15:09:01;101891.03;;;7.10;51.19
57234;BME280;43090;52.604;13.318;2023-04-02T15:11:35;101884.00;;;6.86;52.46
57234;BME280;43090;52.604;13.318;2023-04-02T15:16:30;101898.03;;;6.89;52.79
57234;BME280;43090;52.604;13.318;2023-04-02T15:18:59;101901.69;;;6.61;51.96
57234;BME280;43090;52.604;13.318;2023-04-02T15:24:14;101915.31;;;6.54;53.11
57234;BME280;43090;52.604;13.318;2023-04-02T15:29:22;101913.38;;;6.57;54.24
57234;BME280;43090;52.604;13.318;2023-04-02T15:37:28;101927.91;;;6.22;53.59
57234;BME280;43090;52.604;13.318;2023-04-02T15:40:00;101928.88;;;6.19;52.44
57234;BME280;43090;52.604;13.318;2023-04-02T15:42:37;101942.69;;;6.30;53.31
57234;BME280;43090;52.604;13.318;2023-04-02T15:53:00;101940.63;;;7.14;52.22
57234;BME280;43090;52.604;13.318;2023-04-02T15:55:53;101951.06;;;6.95;53.22
57234;BME280;43090;52.604;13.318;2023-04-02T16:03:54;101966.06;;;5.92;53.06
57234;BME280;43090;52.604;13.318;2023-04-02T16:06:37;101972.56;;;5.82;53.74
57234;BME280;43090;52.604;13.318;2023-04-02T16:09:27;101976.25;;;6.08;56.80
57234;BME280;43090;52.604;13.318;2023-04-02T16:11:57;101971.84;;;6.07;53.68
57234;BME280;43090;52.604;13.318;2023-04-02T16:14:29;101980.94;;;5.99;52.55
57234;BME280;43090;52.604;13.318;2023-04-02T16:16:58;101981.81;;;6.00;54.14